KRSL

Russell Municipal Airport

Russell, Kansas, USA
METAR KRSL 182053Z AUTO 19009KT 10SM CLR 27/19 A3002 RMK AO2 SLP150 T02670194 56017
Observed Flight Rules
Aug-18 @ 20:53 UTC (60 minutes ago) Visual Flight Rules
Wind Visibility Clouds
190° at 9 knots 10 miles
  • Clear skies
Temperatures Readings
Current 27°C / 81°F
Dewpoint 19°C / 66°F
Humidity 62%
Altimeter 30.02" Hg
Pressure 1015 hPa
Elevation 567
METAR KRSL 182053Z AUTO 19009KT 10SM CLR 27/19 A3002 RMK AO2 SLP150 T02670194 56017
Observed Flight Rules
Aug-18 @ 20:53 UTC
(60 minutes ago)
VFR
Wind Visibility
190° at 9 knots 10 miles
Clouds
  • Clear skies
Temperature Dewpoint
27°C / 81°F 19°C / 66°F
Humidity Altimeter Pressure
62% 30.02" Hg 1015 hPa